createdAt,value
2018-08-22T00:02:41.848Z,20.40
2018-08-22T00:07:45.174Z,20.10
2018-08-22T00:12:48.487Z,20.10
2018-08-22T00:17:51.760Z,20.20
2018-08-22T00:22:55.025Z,20.10
2018-08-22T00:27:58.324Z,20.10
2018-08-22T00:33:01.608Z,20.20
2018-08-22T00:38:05.037Z,20.10
2018-08-22T00:43:08.446Z,20.00
2018-08-22T00:48:12.835Z,20.00
2018-08-22T00:53:16.123Z,20.00
2018-08-22T00:58:22.852Z,20.00
2018-08-22T01:03:26.087Z,20.00
2018-08-22T01:08:29.529Z,19.90
2018-08-22T01:13:33.119Z,19.90
2018-08-22T01:18:39.008Z,19.80
2018-08-22T01:23:44.603Z,19.60
2018-08-22T01:28:48.082Z,19.40
2018-08-22T01:33:51.431Z,19.30
2018-08-22T01:38:54.914Z,19.30
2018-08-22T01:44:04.731Z,19.20
2018-08-22T01:49:08.146Z,19.10
2018-08-22T01:54:11.475Z,19.00
2018-08-22T01:59:15.691Z,18.90
2018-08-22T02:04:19.089Z,18.90
2018-08-22T02:09:23.151Z,18.90
2018-08-22T02:14:26.450Z,18.90
2018-08-22T02:19:30.754Z,19.00
2018-08-22T02:24:34.108Z,19.00
2018-08-22T02:29:38.091Z,19.00
2018-08-22T02:34:42.017Z,18.90
2018-08-22T02:39:45.351Z,18.90
2018-08-22T02:44:49.428Z,18.80
2018-08-22T02:49:53.084Z,18.70
2018-08-22T02:54:56.817Z,18.70
2018-08-22T03:00:00.084Z,18.70
2018-08-22T03:05:03.411Z,18.60
2018-08-22T03:10:06.907Z,18.60
2018-08-22T03:15:14.458Z,18.50
2018-08-22T03:20:18.651Z,18.50
2018-08-22T03:25:24.423Z,18.60
2018-08-22T03:30:27.710Z,18.60
2018-08-22T03:35:30.981Z,18.50
2018-08-22T03:40:34.292Z,18.50
2018-08-22T03:45:37.567Z,18.40
2018-08-22T03:50:40.870Z,18.40
2018-08-22T03:55:44.179Z,18.50
2018-08-22T04:00:48.313Z,18.40
2018-08-22T04:05:51.624Z,18.40
2018-08-22T04:10:58.256Z,18.40
2018-08-22T04:16:02.686Z,18.30
2018-08-22T04:21:06.075Z,18.30
2018-08-22T04:26:14.298Z,18.30
2018-08-22T04:31:17.650Z,18.20
2018-08-22T04:36:20.975Z,18.20
2018-08-22T04:41:24.247Z,18.30
2018-08-22T04:46:27.648Z,18.30
2018-08-22T04:51:31.045Z,18.20
2018-08-22T04:56:34.473Z,18.30
2018-08-22T05:01:38.767Z,18.30
2018-08-22T05:06:42.071Z,18.30
2018-08-22T05:11:45.425Z,18.50
2018-08-22T05:16:49.058Z,18.50
2018-08-22T05:21:56.486Z,18.60
2018-08-22T05:26:59.827Z,18.70
2018-08-22T05:32:03.096Z,18.80
2018-08-22T05:37:06.455Z,19.00
2018-08-22T05:42:09.882Z,19.10
2018-08-22T05:47:13.250Z,19.30
2018-08-22T05:52:16.834Z,19.50
2018-08-22T05:57:20.158Z,19.80
2018-08-22T06:02:23.437Z,20.00
2018-08-22T06:07:26.757Z,20.30
2018-08-22T06:12:30.113Z,20.70
2018-08-22T06:17:33.445Z,20.90
2018-08-22T06:22:36.732Z,21.20
2018-08-22T06:27:40.248Z,21.40
2018-08-22T06:32:43.568Z,21.60
2018-08-22T06:37:47.023Z,21.80
2018-08-22T06:42:50.328Z,22.00
2018-08-22T06:47:53.694Z,22.30
2018-08-22T06:52:56.995Z,22.50
2018-08-22T06:58:00.284Z,22.70
2018-08-22T07:03:04.241Z,22.80
2018-08-22T07:08:07.752Z,23.00
2018-08-22T07:13:12.471Z,23.30
2018-08-22T07:18:19.074Z,23.50
2018-08-22T07:23:22.451Z,23.60
2018-08-22T07:28:25.792Z,24.00
2018-08-22T07:33:30.236Z,24.20
2018-08-22T07:38:34.213Z,24.40
2018-08-22T07:43:37.685Z,24.80
2018-08-22T07:48:40.953Z,25.10
2018-08-22T07:53:44.341Z,25.40
2018-08-22T07:58:52.747Z,25.60
2018-08-22T08:03:56.046Z,25.90
2018-08-22T08:08:59.421Z,26.20
2018-08-22T08:14:02.700Z,26.70
2018-08-22T08:19:06.751Z,27.00
2018-08-22T08:24:10.060Z,27.30
2018-08-22T08:29:30.292Z,27.40
2018-08-22T08:34:33.925Z,27.60
2018-08-22T08:39:37.251Z,28.20
2018-08-22T08:44:41.139Z,28.60
2018-08-22T08:49:44.600Z,28.90
2018-08-22T08:54:48.840Z,29.40
2018-08-22T08:59:55.699Z,29.30
2018-08-22T09:05:04.478Z,29.90
2018-08-22T09:10:07.824Z,30.00
2018-08-22T09:15:11.147Z,30.10
2018-08-22T09:20:14.419Z,30.60
2018-08-22T09:25:17.706Z,31.00
2018-08-22T09:30:21.036Z,31.40
2018-08-22T09:35:24.315Z,31.90
2018-08-22T09:40:27.747Z,32.10
2018-08-22T09:45:31.307Z,32.50
2018-08-22T09:50:34.765Z,33.10
2018-08-22T09:55:38.074Z,33.40
2018-08-22T10:00:46.960Z,33.50
2018-08-22T10:05:50.214Z,34.00
2018-08-22T10:10:53.481Z,34.40
2018-08-22T10:15:56.801Z,34.50
2018-08-22T10:21:00.164Z,34.60
2018-08-22T10:26:03.496Z,34.70
2018-08-22T10:31:06.896Z,34.60
2018-08-22T10:36:10.456Z,34.70
2018-08-22T10:41:13.751Z,34.70
2018-08-22T10:46:17.045Z,34.70
2018-08-22T10:51:20.367Z,35.20
2018-08-22T10:56:23.699Z,35.50
2018-08-22T11:01:26.984Z,35.60
2018-08-22T11:06:30.484Z,35.90
2018-08-22T11:11:33.783Z,36.20
2018-08-22T11:16:37.125Z,36.80
2018-08-22T11:21:51.697Z,37.00
2018-08-22T11:27:06.467Z,36.80
2018-08-22T11:32:21.132Z,36.80
2018-08-22T11:37:25.003Z,37.10
2018-08-22T11:42:28.617Z,37.20
2018-08-22T11:47:33.047Z,37.60
2018-08-22T11:52:37.985Z,37.60
2018-08-22T11:57:41.909Z,37.70
2018-08-22T12:02:45.558Z,37.60
2018-08-22T12:07:48.956Z,37.60
2018-08-22T12:12:57.370Z,38.00
2018-08-22T12:18:01.122Z,38.50
2018-08-22T12:23:08.997Z,39.10
2018-08-22T12:28:12.290Z,39.40
2018-08-22T12:33:15.714Z,39.80
2018-08-22T12:38:19.041Z,39.90
2018-08-22T12:43:22.337Z,39.50
2018-08-22T12:48:25.625Z,39.70
2018-08-22T12:53:32.797Z,39.50
2018-08-22T12:58:36.123Z,39.20
2018-08-22T13:03:39.602Z,39.10
2018-08-22T13:08:42.918Z,39.10
2018-08-22T13:13:46.405Z,38.40
2018-08-22T13:18:49.964Z,38.30
2018-08-22T13:23:53.375Z,38.40
2018-08-22T13:28:56.829Z,38.80
2018-08-22T13:34:00.132Z,39.00
2018-08-22T13:39:04.858Z,38.50
2018-08-22T13:44:08.760Z,38.60
2018-08-22T13:49:12.199Z,38.40
2018-08-22T13:54:15.658Z,38.70
2018-08-22T13:59:19.261Z,38.30
2018-08-22T14:04:22.845Z,38.50
2018-08-22T14:09:26.697Z,38.50
2018-08-22T14:14:30.016Z,38.20
2018-08-22T14:19:33.381Z,37.90
2018-08-22T14:24:36.985Z,37.70
2018-08-22T14:29:40.326Z,37.70
2018-08-22T14:34:43.867Z,37.50
2018-08-22T14:39:47.241Z,37.80
2018-08-22T14:44:50.638Z,37.70
2018-08-22T14:49:53.912Z,37.70
2018-08-22T14:54:57.443Z,37.50
2018-08-22T15:00:01.571Z,37.20
2018-08-22T15:05:05.034Z,37.10
2018-08-22T15:10:08.539Z,37.20
2018-08-22T15:15:11.899Z,36.70
2018-08-22T15:20:15.205Z,37.00
2018-08-22T15:25:18.594Z,37.20
2018-08-22T15:30:22.001Z,36.90
2018-08-22T15:35:25.518Z,36.70
2018-08-22T15:40:28.915Z,37.20
2018-08-22T15:45:32.244Z,37.30
2018-08-22T15:50:35.685Z,37.40
2018-08-22T15:55:39.105Z,37.50
2018-08-22T16:00:47.915Z,37.00
2018-08-22T16:05:54.392Z,37.10
2018-08-22T16:10:57.740Z,37.40
2018-08-22T16:16:06.759Z,37.60
2018-08-22T16:21:21.755Z,37.70
2018-08-22T16:26:25.614Z,37.80
2018-08-22T16:31:37.650Z,37.80
2018-08-22T16:36:41.931Z,37.50
2018-08-22T16:41:45.475Z,37.60
2018-08-22T16:46:49.217Z,37.50
2018-08-22T16:51:52.673Z,37.50
2018-08-22T16:56:56.120Z,37.50
2018-08-22T17:02:02.003Z,37.20
2018-08-22T17:07:11.267Z,37.30
2018-08-22T17:12:15.156Z,37.00
2018-08-22T17:17:18.669Z,36.50
2018-08-22T17:22:22.654Z,35.90
2018-08-22T17:27:26.160Z,35.40
2018-08-22T17:32:31.628Z,35.20
2018-08-22T17:37:35.270Z,34.80
2018-08-22T17:42:38.738Z,34.40
2018-08-22T17:47:42.065Z,34.10
2018-08-22T17:52:45.970Z,33.70
2018-08-22T17:58:09.962Z,33.30
2018-08-22T18:03:18.504Z,33.00
2018-08-22T18:08:22.496Z,32.60
2018-08-22T18:13:32.051Z,32.20
2018-08-22T18:24:15.797Z,31.40
2018-08-22T18:30:14.628Z,30.90
2018-08-22T18:41:26.629Z,30.00
2018-08-22T18:46:33.308Z,29.80
2018-08-22T18:51:37.294Z,29.30
2018-08-22T18:56:41.911Z,29.00
2018-08-22T19:01:47.129Z,28.70
2018-08-22T19:06:50.924Z,28.50
2018-08-22T19:11:56.337Z,28.30
2018-08-22T19:17:05.869Z,28.00
2018-08-22T19:22:17.853Z,27.90
2018-08-22T19:27:33.392Z,27.60
2018-08-22T19:37:45.116Z,27.50
2018-08-22T19:42:55.075Z,27.40
2018-08-22T19:48:03.237Z,27.00
2018-08-22T19:53:10.797Z,26.80
2018-08-22T19:58:24.574Z,26.70
2018-08-22T20:03:35.683Z,26.60
2018-08-22T20:08:45.005Z,26.40
2018-08-22T20:14:05.688Z,26.10
2018-08-22T20:19:27.284Z,25.90
2018-08-22T20:30:12.763Z,25.50
2018-08-22T20:35:21.502Z,25.50
2018-08-22T20:40:25.025Z,25.30
2018-08-22T20:45:34.708Z,25.10
2018-08-22T20:50:40.988Z,24.90
2018-08-22T20:55:44.667Z,24.90
2018-08-22T21:00:48.244Z,24.80
2018-08-22T21:05:52.019Z,24.60
2018-08-22T21:10:56.244Z,24.50
2018-08-22T21:16:07.512Z,24.50
2018-08-22T21:26:50.057Z,24.20
2018-08-22T21:31:54.742Z,24.10
2018-08-22T21:36:58.322Z,24.20
2018-08-22T21:42:02.016Z,24.20
2018-08-22T21:47:09.457Z,24.10
2018-08-22T21:52:12.948Z,24.10
2018-08-22T21:57:16.285Z,24.20
2018-08-22T22:02:20.485Z,24.20
2018-08-22T22:07:23.959Z,24.10
2018-08-22T22:12:32.863Z,23.80
2018-08-22T22:17:36.343Z,23.70
2018-08-22T22:22:40.040Z,23.60
2018-08-22T22:27:45.071Z,23.50
2018-08-22T22:32:48.711Z,23.40
2018-08-22T22:37:54.300Z,23.20
2018-08-22T22:43:00.783Z,23.20
2018-08-22T22:48:05.739Z,23.20
2018-08-22T22:53:10.030Z,23.10
2018-08-22T22:58:17.110Z,23.00
2018-08-22T23:03:21.158Z,22.90
2018-08-22T23:08:25.318Z,22.80
2018-08-22T23:13:30.044Z,22.80
2018-08-22T23:18:36.820Z,22.80
2018-08-22T23:23:41.383Z,22.60
2018-08-22T23:28:48.356Z,22.50
2018-08-22T23:34:00.200Z,22.50
2018-08-22T23:39:06.394Z,22.40
2018-08-22T23:44:13.793Z,22.30
2018-08-22T23:49:20.293Z,22.20
2018-08-22T23:54:24.436Z,22.10
2018-08-22T23:59:27.726Z,22.10
